Time;durP1;ratioP1;P1;durP2;ratioP2;P2;SDS_P1;SDS_P2;PMS_P1;PMS_P2;Temp;Humidity;BMP_temperature;BMP_pressure;BME280_temperature;BME280_humidity;BME280_pressure;Samples;Min_cycle;Max_cycle;Signal;HPM_P1;HPM_P2
2023/06/23 00:01:00;;;;;;;14.77;11.00;;;19.00;99.90;;;;;;5069491;28;20244;-69
2023/06/23 00:03:27;;;;;;;10.90;9.93;;;19.10;99.90;;;;;;5047135;28;20627;-69
2023/06/23 00:05:53;;;;;;;9.83;8.97;;;19.00;99.90;;;;;;5040392;28;20699;-70
2023/06/23 00:08:19;;;;;;;9.23;8.27;;;19.20;99.90;;;;;;5047860;28;20204;-71
2023/06/23 00:10:44;;;;;;;9.73;8.87;;;19.20;99.90;;;;;;5048929;28;20663;-71
2023/06/23 00:13:13;;;;;;;9.73;8.83;;;19.20;99.90;;;;;;5048181;28;20196;-67
2023/06/23 00:15:38;;;;;;;9.33;8.57;;;19.10;99.90;;;;;;5065988;28;20302;-69
2023/06/23 00:18:04;;;;;;;9.70;8.90;;;19.00;99.90;;;;;;5063679;28;20728;-70
2023/06/23 00:20:29;;;;;;;10.20;9.20;;;18.90;99.90;;;;;;5065601;28;20200;-75
2023/06/23 00:22:55;;;;;;;9.33;8.33;;;18.70;99.90;;;;;;5064955;28;20196;-76
2023/06/23 00:25:21;;;;;;;9.80;8.90;;;18.40;99.90;;;;;;5064518;28;20214;-72
2023/06/23 00:27:46;;;;;;;11.73;9.80;;;18.60;99.90;;;;;;5064216;28;20232;-73
2023/06/23 00:30:13;;;;;;;10.17;9.20;;;18.50;99.90;;;;;;5064516;28;20197;-72
2023/06/23 00:32:39;;;;;;;9.60;8.43;;;18.50;99.90;;;;;;5059043;28;20186;-72
2023/06/23 00:35:07;;;;;;;9.87;8.70;;;18.70;99.90;;;;;;5054589;28;21257;-71
2023/06/23 00:37:32;;;;;;;9.70;8.80;;;19.00;99.90;;;;;;5065001;28;20201;-72
2023/06/23 00:39:58;;;;;;;8.40;7.47;;;19.00;99.90;;;;;;5062188;28;20223;-72
2023/06/23 00:42:24;;;;;;;8.50;7.80;;;18.70;99.90;;;;;;5057424;28;20203;-73
2023/06/23 00:44:49;;;;;;;9.33;8.43;;;18.50;99.90;;;;;;5058276;28;20218;-73
2023/06/23 00:47:16;;;;;;;9.53;8.63;;;18.60;99.90;;;;;;5059929;28;20200;-73
2023/06/23 00:49:42;;;;;;;9.07;8.27;;;18.50;99.90;;;;;;5059974;28;20194;-71
2023/06/23 00:52:09;;;;;;;9.00;8.10;;;18.50;99.90;;;;;;5068943;28;20869;-73
2023/06/23 00:54:35;;;;;;;10.13;9.20;;;18.20;99.90;;;;;;5068008;28;20239;-78
2023/06/23 00:57:05;;;;;;;10.40;9.33;;;18.00;99.90;;;;;;5067607;28;20727;-72
2023/06/23 00:59:30;;;;;;;11.97;10.33;;;17.80;99.90;;;;;;5068342;28;20194;-73
2023/06/23 01:02:01;;;;;;;12.90;10.80;;;17.90;99.90;;;;;;5068818;28;20200;-75
2023/06/23 01:04:34;;;;;;;13.90;11.20;;;18.30;99.90;;;;;;5065426;28;20227;-74
2023/06/23 01:07:12;;;;;;;12.93;11.50;;;18.40;99.90;;;;;;5070427;28;20663;-71
2023/06/23 01:10:05;;;;;;;11.37;9.63;;;18.50;99.90;;;;;;5066054;28;20197;-71
2023/06/23 01:13:09;;;;;;;11.13;9.97;;;18.30;99.90;;;;;;5065882;28;20262;-70
2023/06/23 01:15:41;;;;;;;10.27;9.37;;;18.30;99.90;;;;;;5059917;28;20218;-70
2023/06/23 01:18:33;;;;;;;11.10;9.10;;;18.30;99.90;;;;;;5062266;28;20671;-72
2023/06/23 01:21:03;;;;;;;11.10;10.10;;;18.30;99.90;;;;;;5068292;28;20204;-72
2023/06/23 01:24:03;;;;;;;10.57;9.57;;;18.30;99.90;;;;;;5067728;28;20205;-72
2023/06/23 01:26:50;;;;;;;11.07;10.07;;;18.40;99.90;;;;;;5062297;28;20293;-72
2023/06/23 01:29:24;;;;;;;11.23;10.07;;;18.50;99.90;;;;;;5066631;28;20680;-76
2023/06/23 01:32:14;;;;;;;9.03;8.13;;;18.70;99.90;;;;;;5065585;28;20202;-77
2023/06/23 01:34:46;;;;;;;10.30;9.40;;;18.80;99.90;;;;;;5064803;28;20218;-76
2023/06/23 01:37:18;;;;;;;11.73;9.63;;;18.70;99.90;;;;;;5069990;28;20288;-74
2023/06/23 01:39:50;;;;;;;10.33;8.50;;;18.70;99.90;;;;;;5064243;28;20234;-75
2023/06/23 01:42:18;;;;;;;9.50;8.57;;;18.70;99.90;;;;;;5064901;28;20310;-75
2023/06/23 01:44:48;;;;;;;10.30;9.10;;;18.60;99.90;;;;;;5064328;28;20718;-76
2023/06/23 01:47:19;;;;;;;9.53;8.07;;;18.70;99.90;;;;;;5066117;28;20210;-75
2023/06/23 01:49:47;;;;;;;9.63;8.63;;;18.60;99.90;;;;;;5066234;28;20203;-76
2023/06/23 01:52:14;;;;;;;8.70;7.87;;;18.70;99.90;;;;;;5062398;28;20677;-77
2023/06/23 01:54:41;;;;;;;10.30;8.40;;;18.60;99.90;;;;;;5060202;28;20198;-75
2023/06/23 01:57:09;;;;;;;8.20;7.50;;;18.70;99.90;;;;;;5055766;28;20210;-73
2023/06/23 01:59:36;;;;;;;8.97;8.07;;;18.70;99.90;;;;;;5058369;28;20213;-76
2023/06/23 02:02:03;;;;;;;8.33;7.63;;;18.70;99.90;;;;;;5058429;28;20252;-76
2023/06/23 02:04:29;;;;;;;7.60;7.00;;;18.70;99.90;;;;;;5064888;28;20302;-72
2023/06/23 02:06:56;;;;;;;8.07;7.23;;;18.60;99.90;;;;;;5054074;28;20191;-71
2023/06/23 02:09:27;;;;;;;8.03;7.33;;;18.70;99.90;;;;;;5058357;28;20680;-72
2023/06/23 02:11:55;;;;;;;8.10;7.40;;;18.60;99.90;;;;;;5054185;28;20203;-71
2023/06/23 02:14:22;;;;;;;8.90;7.77;;;18.50;99.90;;;;;;5058080;28;20194;-71
2023/06/23 02:16:49;;;;;;;9.10;8.20;;;18.50;99.90;;;;;;5055127;28;20203;-71
2023/06/23 02:19:16;;;;;;;8.67;7.97;;;18.40;99.90;;;;;;5058278;28;20204;-78
2023/06/23 02:21:44;;;;;;;12.03;7.77;;;18.50;99.90;;;;;;5057607;28;20230;-78
2023/06/23 02:24:11;;;;;;;8.20;7.50;;;18.40;99.90;;;;;;5057677;28;20695;-78
2023/06/23 02:26:38;;;;;;;7.97;7.20;;;18.50;99.90;;;;;;5057282;28;20298;-78
2023/06/23 02:29:06;;;;;;;8.73;7.93;;;18.50;99.90;;;;;;5054371;28;20283;-76
2023/06/23 02:31:32;;;;;;;10.53;7.47;;;18.50;99.90;;;;;;5054284;28;20200;-72
2023/06/23 02:33:58;;;;;;;8.40;7.37;;;18.50;99.90;;;;;;5058031;28;20263;-74
2023/06/23 02:36:29;;;;;;;8.17;7.43;;;18.50;99.90;;;;;;5057856;28;20671;-73
2023/06/23 02:38:56;;;;;;;8.73;7.90;;;18.40;99.90;;;;;;5056731;28;20219;-77
2023/06/23 02:41:26;;;;;;;7.53;6.93;;;18.40;99.90;;;;;;5047125;28;20693;-76
2023/06/23 02:43:54;;;;;;;7.97;7.17;;;18.30;99.90;;;;;;5045559;28;20833;-77
2023/06/23 02:46:24;;;;;;;12.63;7.27;;;18.30;99.90;;;;;;5047207;28;20354;-75
2023/06/23 02:48:52;;;;;;;8.67;6.40;;;18.30;99.90;;;;;;5044000;28;20191;-76
2023/06/23 02:51:22;;;;;;;7.70;7.00;;;18.30;99.90;;;;;;5056517;28;20670;-75
2023/06/23 02:54:06;;;;;;;7.90;7.07;;;18.30;99.90;;;;;;5056226;28;20197;-76
2023/06/23 02:56:40;;;;;;;9.20;8.10;;;18.20;99.90;;;;;;5046759;28;20194;-75
2023/06/23 02:59:08;;;;;;;8.27;7.47;;;18.30;99.90;;;;;;5045672;28;20285;-75
2023/06/23 03:01:39;;;;;;;8.60;7.47;;;18.40;99.90;;;;;;5047060;28;20208;-75
2023/06/23 03:04:04;;;;;;;7.67;7.00;;;18.40;99.90;;;;;;5051288;28;20289;-76
2023/06/23 03:06:34;;;;;;;9.67;7.70;;;18.40;99.90;;;;;;5047519;28;20284;-76
2023/06/23 03:09:00;;;;;;;7.50;6.80;;;18.30;99.90;;;;;;5047832;28;20206;-77
2023/06/23 03:11:25;;;;;;;7.67;6.97;;;18.30;99.90;;;;;;5044391;28;20555;-76
2023/06/23 03:13:51;;;;;;;7.67;6.97;;;18.30;99.90;;;;;;5046501;28;20237;-77
2023/06/23 03:16:27;;;;;;;8.47;7.77;;;18.20;99.90;;;;;;5046413;28;20657;-76
2023/06/23 03:19:13;;;;;;;7.73;7.00;;;18.20;99.90;;;;;;5049773;28;20205;-76
2023/06/23 03:21:40;;;;;;;10.60;8.30;;;18.20;99.90;;;;;;5046895;28;20207;-76
2023/06/23 03:24:11;;;;;;;9.60;8.60;;;18.20;99.90;;;;;;5045129;28;20207;-76
2023/06/23 03:26:40;;;;;;;9.23;8.43;;;18.10;99.90;;;;;;5046375;28;20311;-76
2023/06/23 03:29:08;;;;;;;10.17;8.00;;;18.10;99.90;;;;;;5046499;28;20204;-76
2023/06/23 03:31:39;;;;;;;8.07;7.37;;;18.20;99.90;;;;;;5046509;28;20207;-76
2023/06/23 03:34:06;;;;;;;9.77;8.53;;;18.10;99.90;;;;;;5042591;28;20204;-76
2023/06/23 03:36:35;;;;;;;8.70;7.90;;;18.10;99.90;;;;;;5046767;28;20206;-77
2023/06/23 03:39:10;;;;;;;10.73;8.40;;;18.10;99.90;;;;;;5047052;28;20222;-77
2023/06/23 03:41:38;;;;;;;8.60;7.90;;;18.20;99.90;;;;;;5045660;28;20204;-76
2023/06/23 03:44:37;;;;;;;9.50;8.60;;;18.20;99.90;;;;;;5046333;28;20410;-75
2023/06/23 03:47:09;;;;;;;10.60;9.40;;;18.30;99.90;;;;;;5048994;28;20272;-75
2023/06/23 03:49:46;;;;;;;9.33;8.53;;;18.30;99.90;;;;;;5061686;28;20357;-75
2023/06/23 03:52:14;;;;;;;8.77;7.90;;;18.30;99.90;;;;;;5052774;28;20688;-75
2023/06/23 03:54:41;;;;;;;9.63;8.80;;;18.20;99.90;;;;;;5053791;28;20210;-77
2023/06/23 03:57:10;;;;;;;10.17;9.10;;;18.20;99.90;;;;;;5055517;28;20205;-76
2023/06/23 03:59:38;;;;;;;9.23;8.33;;;18.20;99.90;;;;;;5057958;28;20209;-74
2023/06/23 04:02:07;;;;;;;14.60;9.87;;;18.20;99.90;;;;;;5064905;28;20229;-73
2023/06/23 04:04:35;;;;;;;10.10;9.13;;;18.20;99.90;;;;;;5054764;28;20553;-73
2023/06/23 04:07:03;;;;;;;10.87;9.77;;;18.30;99.90;;;;;;5061937;28;20277;-75
2023/06/23 04:09:31;;;;;;;12.13;9.87;;;18.30;99.90;;;;;;5056341;28;20569;-75
2023/06/23 04:12:00;;;;;;;9.80;8.80;;;18.30;99.90;;;;;;5054979;28;20198;-74
2023/06/23 04:14:27;;;;;;;11.13;9.80;;;18.20;99.90;;;;;;5062893;28;20218;-66
2023/06/23 04:16:54;;;;;;;10.37;9.23;;;18.30;99.90;;;;;;5060849;28;20196;-64
2023/06/23 04:19:27;;;;;;;9.90;8.90;;;18.30;99.90;;;;;;5062865;28;20245;-64
2023/06/23 04:21:54;;;;;;;12.10;9.93;;;18.30;99.90;;;;;;5056898;28;20207;-64
2023/06/23 04:24:21;;;;;;;10.93;9.83;;;18.30;99.90;;;;;;5053018;28;20229;-63
2023/06/23 04:26:50;;;;;;;11.83;9.97;;;18.30;99.90;;;;;;5051166;28;20269;-63
2023/06/23 04:29:18;;;;;;;12.03;9.83;;;18.40;99.90;;;;;;5054482;28;20201;-64
2023/06/23 04:31:46;;;;;;;10.17;9.03;;;18.40;99.90;;;;;;5050693;28;20239;-63
2023/06/23 04:34:11;;;;;;;10.70;9.73;;;18.40;99.90;;;;;;5052329;28;20207;-63
2023/06/23 04:36:44;;;;;;;11.47;10.37;;;18.40;99.90;;;;;;5050507;28;20267;-63
2023/06/23 04:39:25;;;;;;;10.90;9.90;;;18.50;99.90;;;;;;5053268;28;20220;-62
2023/06/23 04:41:53;;;;;;;11.50;10.40;;;18.60;99.90;;;;;;5050255;28;20235;-62
2023/06/23 04:44:21;;;;;;;12.63;11.27;;;18.70;99.90;;;;;;5052790;28;20199;-63
2023/06/23 04:46:51;;;;;;;12.03;10.83;;;18.70;99.90;;;;;;5050806;28;20557;-64
2023/06/23 04:49:21;;;;;;;10.17;9.27;;;18.70;99.90;;;;;;5062462;28;20902;-64
2023/06/23 04:51:52;;;;;;;11.50;10.30;;;18.80;99.90;;;;;;5058034;28;20567;-64
2023/06/23 04:54:25;;;;;;;10.07;8.97;;;18.70;99.90;;;;;;5052519;28;20936;-64
2023/06/23 04:56:59;;;;;;;11.80;10.70;;;18.80;99.90;;;;;;5051359;28;20253;-64
2023/06/23 04:59:27;;;;;;;10.53;9.53;;;18.90;99.90;;;;;;5055843;28;20202;-64
2023/06/23 05:01:54;;;;;;;11.27;10.07;;;18.70;99.90;;;;;;5048449;28;20195;-64
2023/06/23 05:04:20;;;;;;;11.83;10.27;;;18.60;99.90;;;;;;5048523;28;20739;-65
2023/06/23 05:06:46;;;;;;;10.90;9.80;;;18.60;99.90;;;;;;5047525;28;20695;-64
2023/06/23 05:09:15;;;;;;;10.50;9.63;;;18.60;99.90;;;;;;5052166;28;20220;-64
2023/06/23 05:11:43;;;;;;;10.93;9.93;;;18.70;99.90;;;;;;5048740;28;20211;-64
2023/06/23 05:14:09;;;;;;;10.13;9.23;;;18.70;99.90;;;;;;5049255;28;20207;-63
2023/06/23 05:16:36;;;;;;;11.57;9.53;;;18.70;99.90;;;;;;5059182;28;20252;-63
2023/06/23 05:19:06;;;;;;;11.10;10.10;;;18.60;99.90;;;;;;5057744;28;20259;-64
2023/06/23 05:21:33;;;;;;;10.33;9.43;;;18.50;99.90;;;;;;5061739;28;20191;-62
2023/06/23 05:24:00;;;;;;;10.20;8.93;;;18.50;99.90;;;;;;5055394;28;20207;-62
2023/06/23 05:26:33;;;;;;;9.53;8.63;;;18.60;99.90;;;;;;5058097;28;20298;-63
2023/06/23 05:29:00;;;;;;;9.33;8.47;;;18.70;99.90;;;;;;5058947;28;20661;-62
2023/06/23 05:31:29;;;;;;;8.87;8.17;;;18.70;99.90;;;;;;5058988;28;20213;-62
2023/06/23 05:33:56;;;;;;;11.87;8.40;;;18.70;99.90;;;;;;5057382;28;20757;-63
2023/06/23 05:36:22;;;;;;;10.87;8.00;;;18.70;99.90;;;;;;5057420;28;20285;-63
2023/06/23 05:38:50;;;;;;;8.00;7.20;;;18.80;99.90;;;;;;5059154;28;20232;-63
2023/06/23 05:41:16;;;;;;;9.43;8.43;;;18.80;99.90;;;;;;5055744;28;20202;-72
2023/06/23 05:43:41;;;;;;;9.40;8.40;;;18.70;99.90;;;;;;5058274;28;20204;-77
2023/06/23 05:46:12;;;;;;;8.90;8.20;;;18.80;99.90;;;;;;5058347;28;20219;-62
2023/06/23 05:48:51;;;;;;;9.97;8.03;;;18.90;99.90;;;;;;5058648;28;20226;-63
2023/06/23 05:51:23;;;;;;;8.90;8.17;;;18.90;99.90;;;;;;5057871;28;20283;-62
2023/06/23 05:53:54;;;;;;;9.30;8.47;;;18.90;99.90;;;;;;5055894;28;20418;-62
2023/06/23 05:56:30;;;;;;;8.23;7.50;;;19.00;99.90;;;;;;5058365;28;20202;-62
2023/06/23 05:58:58;;;;;;;8.63;7.93;;;18.90;99.90;;;;;;5057618;28;20282;-63
2023/06/23 06:01:27;;;;;;;9.50;8.27;;;19.00;99.90;;;;;;5058466;28;20205;-62
2023/06/23 06:04:04;;;;;;;8.70;8.00;;;18.90;99.90;;;;;;5057858;28;20219;-62
2023/06/23 06:06:31;;;;;;;8.87;7.97;;;18.90;99.90;;;;;;5058233;28;20197;-64
2023/06/23 06:08:57;;;;;;;7.57;6.80;;;18.90;99.90;;;;;;5056223;28;20673;-63
2023/06/23 06:11:25;;;;;;;9.87;8.77;;;18.90;99.90;;;;;;5056334;28;20277;-63
2023/06/23 06:13:53;;;;;;;10.77;8.90;;;18.90;99.90;;;;;;5056400;28;20191;-63
2023/06/23 06:16:19;;;;;;;10.53;9.53;;;18.90;99.90;;;;;;5057954;28;20230;-63
2023/06/23 06:18:46;;;;;;;7.23;6.63;;;18.90;99.90;;;;;;5056095;28;20245;-63
2023/06/23 06:21:14;;;;;;;10.00;7.70;;;18.90;99.90;;;;;;5057421;28;20216;-63
2023/06/23 06:23:41;;;;;;;10.50;9.43;;;18.80;99.90;;;;;;5057803;28;20201;-63
2023/06/23 06:26:09;;;;;;;9.70;8.80;;;18.80;99.90;;;;;;5058278;28;20220;-62
2023/06/23 06:28:36;;;;;;;9.70;8.83;;;18.80;99.90;;;;;;5055258;28;20247;-62
2023/06/23 06:31:03;;;;;;;11.63;9.10;;;18.90;99.90;;;;;;5057570;28;20211;-62
2023/06/23 06:33:31;;;;;;;10.20;9.27;;;19.00;99.90;;;;;;5057630;28;20205;-62
2023/06/23 06:36:03;;;;;;;10.80;9.80;;;19.00;99.90;;;;;;5057321;28;20574;-62
2023/06/23 06:38:34;;;;;;;10.03;9.03;;;19.10;99.90;;;;;;5055258;28;20199;-62
2023/06/23 06:41:02;;;;;;;10.70;9.70;;;19.00;99.90;;;;;;5057118;28;20199;-63
2023/06/23 06:43:28;;;;;;;11.33;10.13;;;18.90;99.90;;;;;;5057570;28;20206;-63
2023/06/23 06:45:54;;;;;;;10.17;9.17;;;19.00;99.90;;;;;;5055049;28;20233;-63
2023/06/23 06:48:21;;;;;;;10.47;9.57;;;18.90;99.90;;;;;;5057243;28;20289;-63
2023/06/23 06:50:48;;;;;;;11.20;10.20;;;19.00;99.90;;;;;;5055691;28;20289;-63
2023/06/23 06:53:15;;;;;;;10.47;9.67;;;19.00;99.90;;;;;;5059472;28;20196;-62
2023/06/23 06:55:41;;;;;;;12.07;10.97;;;18.90;99.90;;;;;;5053888;28;20249;-62
2023/06/23 06:58:08;;;;;;;11.93;10.23;;;18.90;99.90;;;;;;5055195;28;20723;-63
2023/06/23 07:00:33;;;;;;;12.37;11.27;;;19.00;99.90;;;;;;5059220;28;20195;-63
2023/06/23 07:02:59;;;;;;;12.13;11.03;;;19.20;99.90;;;;;;5052872;28;20199;-62
2023/06/23 07:05:24;;;;;;;12.37;11.13;;;19.10;99.90;;;;;;5056654;28;20299;-63
2023/06/23 07:07:50;;;;;;;9.10;8.23;;;19.10;99.90;;;;;;5056097;28;20210;-63
2023/06/23 07:10:15;;;;;;;11.97;10.07;;;19.10;99.90;;;;;;5056341;28;20269;-62
2023/06/23 07:12:41;;;;;;;9.93;9.07;;;19.20;99.90;;;;;;5053840;28;20600;-62
2023/06/23 07:15:09;;;;;;;11.70;10.60;;;19.20;99.90;;;;;;5055163;28;20747;-61
2023/06/23 07:17:35;;;;;;;11.07;9.97;;;19.40;99.90;;;;;;5056740;28;20228;-62
2023/06/23 07:20:00;;;;;;;12.07;10.87;;;19.30;99.90;;;;;;5056457;28;20226;-62
2023/06/23 07:22:26;;;;;;;12.30;11.10;;;19.30;99.90;;;;;;5056417;28;20530;-62
2023/06/23 07:24:53;;;;;;;10.70;9.70;;;19.30;99.90;;;;;;5054324;28;20705;-62
2023/06/23 07:27:19;;;;;;;10.93;9.93;;;19.20;99.90;;;;;;5057854;28;20352;-62
2023/06/23 07:29:45;;;;;;;11.23;10.03;;;19.20;99.90;;;;;;5054993;28;20657;-62
2023/06/23 07:32:10;;;;;;;11.07;9.97;;;19.30;99.90;;;;;;5053928;28;20187;-62
2023/06/23 07:34:36;;;;;;;12.03;10.87;;;19.30;99.90;;;;;;5056295;28;20240;-61
2023/06/23 07:37:01;;;;;;;9.03;8.13;;;19.30;99.90;;;;;;5050637;28;20213;-62
2023/06/23 07:39:27;;;;;;;10.97;10.00;;;19.30;99.90;;;;;;5046444;28;20554;-71
2023/06/23 07:41:52;;;;;;;11.87;10.77;;;19.40;99.90;;;;;;5054630;28;20199;-71
2023/06/23 07:44:18;;;;;;;11.20;10.07;;;19.50;99.90;;;;;;5056445;28;20196;-65
2023/06/23 07:46:43;;;;;;;12.47;11.43;;;19.50;99.90;;;;;;5062192;28;20709;-66
2023/06/23 07:49:09;;;;;;;12.37;11.27;;;19.30;99.90;;;;;;5065576;28;20200;-62
2023/06/23 07:51:34;;;;;;;11.50;10.50;;;19.20;99.90;;;;;;5059268;28;20272;-62
2023/06/23 07:54:00;;;;;;;11.37;10.43;;;19.20;99.90;;;;;;5056634;28;20200;-63
2023/06/23 07:56:25;;;;;;;13.23;10.27;;;19.20;99.90;;;;;;5059433;28;20203;-63
2023/06/23 07:58:50;;;;;;;11.30;10.23;;;19.10;99.90;;;;;;5052968;28;20237;-63
2023/06/23 08:01:16;;;;;;;11.10;9.90;;;19.10;99.90;;;;;;5056253;28;20216;-61
2023/06/23 08:03:48;;;;;;;12.03;10.67;;;19.10;99.90;;;;;;5061602;28;20782;-61
2023/06/23 08:06:13;;;;;;;11.43;10.33;;;19.00;99.90;;;;;;5058983;28;20651;-61
2023/06/23 08:08:40;;;;;;;12.80;11.33;;;19.10;99.90;;;;;;5061200;28;20318;-61
2023/06/23 08:11:06;;;;;;;9.90;9.00;;;19.10;99.90;;;;;;5063393;28;20203;-60
2023/06/23 08:13:31;;;;;;;10.67;9.80;;;19.20;99.90;;;;;;5067855;28;20196;-60
2023/06/23 08:15:56;;;;;;;10.23;9.37;;;19.10;99.90;;;;;;5061156;28;20212;-61
2023/06/23 08:18:22;;;;;;;10.97;9.93;;;19.10;99.90;;;;;;5052185;28;20616;-61
2023/06/23 08:20:49;;;;;;;8.63;7.83;;;19.00;99.90;;;;;;5056866;28;20199;-61
2023/06/23 08:23:14;;;;;;;11.27;9.40;;;19.10;99.90;;;;;;5058049;28;20764;-62
2023/06/23 08:25:40;;;;;;;13.00;10.53;;;19.10;99.90;;;;;;5053652;28;20384;-60
2023/06/23 08:28:05;;;;;;;11.50;10.37;;;19.10;99.90;;;;;;5063839;28;20203;-60
2023/06/23 08:30:32;;;;;;;11.57;10.37;;;19.10;99.90;;;;;;5065295;28;20254;-60
2023/06/23 08:32:58;;;;;;;12.13;11.03;;;19.20;99.90;;;;;;5056475;28;20189;-60
2023/06/23 08:35:23;;;;;;;11.73;10.63;;;19.20;99.90;;;;;;5059709;28;20217;-60
2023/06/23 08:37:49;;;;;;;11.70;10.57;;;19.30;99.90;;;;;;5062776;28;20532;-60
2023/06/23 08:40:15;;;;;;;12.13;11.10;;;19.20;99.90;;;;;;5066729;28;20228;-73
2023/06/23 08:42:40;;;;;;;11.90;10.80;;;19.20;99.90;;;;;;5056403;28;20690;-72
2023/06/23 08:45:11;;;;;;;11.47;10.40;;;19.20;99.90;;;;;;5057467;28;20725;-73
2023/06/23 08:47:44;;;;;;;11.07;10.10;;;19.30;99.90;;;;;;5059250;28;20299;-72
2023/06/23 08:50:10;;;;;;;11.77;10.77;;;19.30;99.90;;;;;;5057955;28;20197;-70
2023/06/23 08:52:36;;;;;;;11.00;10.07;;;19.20;99.90;;;;;;5059546;28;20741;-70
2023/06/23 08:55:02;;;;;;;11.07;10.07;;;19.40;99.90;;;;;;5057721;28;20247;-72
2023/06/23 08:57:28;;;;;;;9.97;9.10;;;19.50;99.90;;;;;;5058749;28;20206;-72
2023/06/23 08:59:55;;;;;;;12.53;11.47;;;19.50;99.90;;;;;;5057773;28;20669;-73
2023/06/23 09:02:21;;;;;;;10.60;9.80;;;19.50;99.90;;;;;;5059200;28;20197;-71
2023/06/23 09:04:48;;;;;;;10.90;10.00;;;19.60;99.90;;;;;;5062529;28;20223;-72
2023/06/23 09:07:13;;;;;;;12.03;10.50;;;19.60;99.90;;;;;;5056996;28;20199;-78
2023/06/23 09:09:41;;;;;;;11.20;10.27;;;19.60;99.90;;;;;;5061841;28;20278;-72
2023/06/23 09:12:07;;;;;;;11.10;10.20;;;19.60;99.90;;;;;;5056185;28;20657;-73
2023/06/23 09:14:34;;;;;;;11.40;10.50;;;19.60;99.90;;;;;;5057900;28;20219;-73
2023/06/23 09:17:01;;;;;;;12.77;11.73;;;19.60;99.90;;;;;;5056939;28;20196;-71
2023/06/23 09:19:27;;;;;;;12.83;11.73;;;19.60;99.90;;;;;;5059165;28;20795;-70
2023/06/23 09:21:54;;;;;;;12.47;11.43;;;19.60;99.90;;;;;;5058515;28;20263;-72
2023/06/23 09:24:20;;;;;;;12.97;11.87;;;19.60;99.90;;;;;;5058633;28;20360;-72
2023/06/23 09:26:55;;;;;;;11.60;10.57;;;19.60;99.90;;;;;;5059123;28;20199;-72
2023/06/23 09:29:22;;;;;;;10.83;9.83;;;19.50;99.90;;;;;;5058974;28;20189;-72
2023/06/23 09:31:49;;;;;;;11.73;10.63;;;19.60;99.90;;;;;;5058746;28;20898;-72
2023/06/23 09:34:30;;;;;;;11.90;10.67;;;19.60;99.90;;;;;;5058518;28;20213;-72
2023/06/23 09:37:10;;;;;;;12.60;11.60;;;19.60;99.90;;;;;;5058322;28;20600;-72
2023/06/23 09:39:48;;;;;;;13.83;12.63;;;19.50;99.90;;;;;;5056645;28;20262;-72
2023/06/23 09:42:14;;;;;;;14.07;12.60;;;19.40;99.90;;;;;;5057578;28;20203;-77
2023/06/23 09:44:48;;;;;;;13.57;11.93;;;19.60;99.90;;;;;;5058457;28;20212;-71
2023/06/23 09:47:16;;;;;;;16.37;14.97;;;19.60;99.90;;;;;;5058595;28;20228;-70
2023/06/23 09:49:46;;;;;;;16.50;15.10;;;19.80;99.90;;;;;;5058992;28;20475;-76
2023/06/23 09:52:27;;;;;;;18.60;17.00;;;19.60;99.90;;;;;;5058877;28;20278;-73
2023/06/23 09:54:54;;;;;;;16.27;14.67;;;19.60;99.90;;;;;;5059647;28;20200;-72
2023/06/23 09:57:20;;;;;;;16.73;15.23;;;19.50;99.90;;;;;;5056724;28;20194;-76
2023/06/23 09:59:50;;;;;;;17.27;15.50;;;19.80;99.90;;;;;;5058834;28;20666;-72
2023/06/23 10:02:27;;;;;;;17.90;16.17;;;19.70;99.90;;;;;;5056794;28;20501;-70
2023/06/23 10:05:03;;;;;;;14.43;13.20;;;19.60;99.90;;;;;;5059423;28;20228;-71
2023/06/23 10:07:30;;;;;;;17.77;16.17;;;19.60;99.90;;;;;;5056382;28;20672;-73
2023/06/23 10:10:07;;;;;;;16.97;15.43;;;19.60;99.90;;;;;;5067989;28;20203;-74
2023/06/23 10:12:33;;;;;;;15.27;14.00;;;19.60;99.90;;;;;;5060937;28;20242;-79
2023/06/23 10:14:59;;;;;;;34.40;31.07;;;19.60;99.90;;;;;;5057105;28;20274;-78
2023/06/23 10:17:25;;;;;;;16.77;15.27;;;19.50;99.90;;;;;;5059550;28;20208;-80
2023/06/23 10:19:55;;;;;;;15.10;13.80;;;19.40;99.90;;;;;;5061892;28;20264;-76
2023/06/23 10:22:21;;;;;;;15.63;14.07;;;19.30;99.90;;;;;;5058623;28;20250;-73
2023/06/23 10:24:50;;;;;;;15.80;14.03;;;19.30;99.90;;;;;;5057082;28;20249;-80
2023/06/23 10:27:28;;;;;;;15.47;14.03;;;19.30;99.90;;;;;;5057952;28;20294;-80
2023/06/23 10:29:59;;;;;;;14.40;13.27;;;19.20;99.90;;;;;;5059429;28;20223;-77
2023/06/23 10:32:30;;;;;;;15.10;13.80;;;19.20;99.90;;;;;;5057558;28;20230;-75
2023/06/23 10:35:08;;;;;;;12.83;11.73;;;19.30;99.90;;;;;;5058401;28;20297;-77
2023/06/23 10:37:34;;;;;;;13.70;12.40;;;19.40;99.90;;;;;;5062714;28;20200;-72
2023/06/23 10:40:04;;;;;;;12.47;11.57;;;19.60;99.90;;;;;;5065829;28;20218;-75
2023/06/23 10:42:34;;;;;;;13.40;12.20;;;19.60;99.90;;;;;;5068589;28;20208;-74
2023/06/23 10:45:00;;;;;;;13.47;12.27;;;19.60;99.90;;;;;;5064288;28;20219;-69
2023/06/23 10:47:26;;;;;;;14.00;12.70;;;19.50;99.90;;;;;;5056112;28;20191;-72
2023/06/23 10:49:52;;;;;;;11.63;10.57;;;19.40;99.90;;;;;;5056034;28;20200;-72
2023/06/23 10:52:18;;;;;;;12.50;11.33;;;19.50;99.90;;;;;;5057158;28;20548;-71
2023/06/23 10:54:44;;;;;;;12.57;11.50;;;19.50;99.90;;;;;;5057193;28;20227;-72
2023/06/23 10:57:10;;;;;;;16.57;14.13;;;19.60;99.90;;;;;;5065215;28;20190;-71
2023/06/23 10:59:40;;;;;;;15.60;14.07;;;19.70;99.90;;;;;;5067407;28;20193;-72
2023/06/23 11:02:07;;;;;;;14.50;13.30;;;19.90;99.90;;;;;;5049249;28;20206;-76
2023/06/23 11:04:38;;;;;;;16.77;15.10;;;19.80;99.90;;;;;;5062301;28;20196;-74
2023/06/23 11:07:14;;;;;;;16.33;14.73;;;19.70;99.90;;;;;;5058282;28;20355;-75
2023/06/23 11:09:45;;;;;;;17.27;15.83;;;19.70;99.90;;;;;;5054559;28;20213;-74
2023/06/23 11:12:33;;;;;;;19.93;18.23;;;19.70;99.90;;;;;;5057226;28;20333;-73
2023/06/23 11:15:23;;;;;;;21.87;19.87;;;19.60;99.90;;;;;;5057026;28;20202;-76
2023/06/23 11:18:02;;;;;;;20.83;19.13;;;19.50;99.90;;;;;;5053698;28;20693;-75
2023/06/23 11:20:35;;;;;;;22.30;20.40;;;19.40;99.90;;;;;;5046995;28;20755;-75
2023/06/23 11:23:05;;;;;;;23.50;21.33;;;19.30;99.90;;;;;;5044369;28;20241;-75
2023/06/23 11:25:49;;;;;;;22.47;20.47;;;19.20;99.90;;;;;;5045317;28;20210;-75
2023/06/23 11:28:40;;;;;;;22.80;20.73;;;19.30;99.90;;;;;;5045032;28;20199;-74
2023/06/23 11:31:13;;;;;;;21.83;19.90;;;19.30;99.90;;;;;;5054644;28;20239;-74
2023/06/23 11:33:41;;;;;;;20.77;18.97;;;19.40;99.90;;;;;;5064261;28;20195;-76
2023/06/23 11:36:19;;;;;;;24.83;20.03;;;19.30;99.90;;;;;;5059466;28;20467;-78
2023/06/23 11:38:45;;;;;;;19.77;17.97;;;19.20;99.90;;;;;;5060381;28;21007;-75
2023/06/23 11:41:13;;;;;;;18.03;16.40;;;19.20;99.90;;;;;;5062092;28;20202;-75
2023/06/23 11:43:39;;;;;;;17.30;15.57;;;19.20;99.90;;;;;;5061573;28;20210;-75
2023/06/23 11:46:14;;;;;;;15.30;14.00;;;19.20;99.90;;;;;;5061505;28;20946;-75
2023/06/23 11:48:41;;;;;;;14.53;13.23;;;19.20;99.90;;;;;;5046405;28;20282;-75
2023/06/23 11:51:08;;;;;;;12.67;11.47;;;19.20;99.90;;;;;;5046255;28;20208;-75
2023/06/23 11:53:35;;;;;;;10.23;9.30;;;19.20;99.90;;;;;;5046169;28;20751;-75
2023/06/23 11:56:02;;;;;;;10.70;9.50;;;19.10;99.90;;;;;;5041422;28;20212;-70
2023/06/23 11:58:30;;;;;;;11.13;10.13;;;19.00;99.90;;;;;;5052051;28;20217;-74
2023/06/23 12:00:55;;;;;;;10.30;9.40;;;18.80;99.90;;;;;;5046246;28;20207;-75
2023/06/23 12:03:21;;;;;;;10.67;9.60;;;18.70;99.90;;;;;;5046958;28;20204;-76
2023/06/23 12:05:46;;;;;;;9.70;8.83;;;18.80;99.90;;;;;;5044614;28;20274;-77
2023/06/23 12:08:13;;;;;;;11.97;10.37;;;18.80;99.90;;;;;;5045452;28;20237;-74
2023/06/23 12:10:40;;;;;;;10.50;9.50;;;18.90;99.90;;;;;;5046397;28;20675;-76
2023/06/23 12:13:10;;;;;;;9.87;8.83;;;18.70;99.90;;;;;;5050544;28;20230;-81
2023/06/23 12:15:37;;;;;;;11.17;9.30;;;18.80;99.90;;;;;;5048803;28;20194;-77
2023/06/23 12:18:03;;;;;;;10.03;8.77;;;18.80;99.90;;;;;;5049012;28;20222;-75
2023/06/23 12:20:28;;;;;;;13.03;9.60;;;18.70;99.90;;;;;;5047794;28;20205;-77
2023/06/23 12:22:54;;;;;;;9.33;8.13;;;18.60;99.90;;;;;;5050216;28;20300;-78
2023/06/23 12:25:19;;;;;;;11.53;8.77;;;18.50;99.90;;;;;;5048840;28;20206;-75
2023/06/23 12:27:54;;;;;;;10.63;8.43;;;18.40;99.90;;;;;;5049367;28;20683;-72
2023/06/23 12:30:21;;;;;;;9.17;8.00;;;18.30;99.90;;;;;;5049739;28;20504;-73
2023/06/23 12:32:47;;;;;;;9.07;8.07;;;18.20;99.90;;;;;;5047195;28;20202;-72
2023/06/23 12:35:15;;;;;;;9.87;8.13;;;18.20;99.90;;;;;;5048956;28;20217;-72
2023/06/23 12:37:45;;;;;;;8.83;7.57;;;18.10;99.90;;;;;;5048723;28;20194;-70
2023/06/23 12:40:28;;;;;;;8.77;7.80;;;18.10;99.90;;;;;;5044060;28;20881;-71
2023/06/23 12:42:56;;;;;;;7.90;7.20;;;18.10;99.90;;;;;;5046592;28;20187;-75
2023/06/23 12:45:23;;;;;;;8.10;6.57;;;18.00;99.90;;;;;;5059336;28;20226;-75